首页
METAR-TAF:

METAR-TAF

机场 :

孟菲斯国际机场

孟菲斯, 田纳西州, 美国

纬度: 35-03-40N, 经度: 089-59-06W, 海拔: 101米

当前天气观测

该预报发布于2小时和23分钟前的02:54 UTC
风速12节,风向西南,有时为19节阵风
温度 18°C
湿度 68%
气压 1004 hPa
能見度: 16.1公里
少量云层高于8000英尺

METAR: KMEM 260254Z 23012G19KT 10SM FEW080 18/12 A2964 RMK AO2 SLP036 T01830117 53015 $

时间: 23:17 (05:17 UTC)

预报

该预报发布于2小时和15分钟前的03:02 UTC
预报有效从26日的 03点(UTC)到 27日的 06点(UTC)
风速12节,风向西南
能見度: 10公里
散云层高于8000英尺
从 26日的 1000点(UTC)
风速5节,风向西南
能見度: 10公里
少量云层高于25000英尺
从 26日的 1500点(UTC)
风速6节,风向西转西南
能見度: 10公里
散云层高于15000英尺
从 27日的 0100点(UTC)
风速5节,风向
能見度: 10公里
散云层高于12000英尺

TAF: KMEM 260302Z 2603/2706 23012KT P6SM SCT080 FM261000 22005KT P6SM FEW250 FM261500 25006KT P6SM SCT150 FM270100 01005KT P6SM SCT120

超过4000个机场的气象观测和天气预报(METAR&TAF报告)。

可查询的气象台以黄色和红色小点在地图上表示。

将鼠标移到小点上方,可查看气象台名称。

然后点击查看天气观测和预报。

如需切换地图:点击带黑十字的绿色按钮放大地图;点击带横线的绿色按钮缩小地图;或者点击绿色箭头查看邻近地区的地图。


METAR-TAF: